Portada
METAR-TAF:

METAR-TAF

Aeropuertos :

Aeropuerto de Nagasaki

Nagasaki, Japón

latitud: 32-55N, longitud: 129-55E, altitud: 2 m

Observación

El informe se hizo hace 52 minutos, a las 04:00 UTC
Viento 7 kt del sur-sureste
Temperatura 12°C
Humedad 62%
Presión 1029 hPa
Visibilidad 10 km o más
Escasas nubes a una altura de 4000 ft

METAR: RJFU 200400Z 16007KT 9999 FEW040 12/05 Q1029

Hora: 13:52 (04:52 UTC)

Pronóstico

El informe se hizo hace 41 minutos, a las 04:11 UTC
Pronóstico válido del 20 a las 04 UTC al 21 a las 06 UTC
Viento 7 kt del sur
Visibilidad 10 km o más
Escasas nubes a una altura de 4000 ft
Evolucionando progresivamente
del 20 a las 04 UTC al 20 a las 06 UTC
Viento 10 kt del norte
Evolucionando progresivamente
del 20 a las 12 UTC al 20 a las 15 UTC
Viento 8 kt del sureste

TAF: RJFU 200411Z 2004/2106 17007KT 9999 FEW040 BECMG 2004/2006 35010KT BECMG 2012/2015 13008KT

Observaciones y pronósticos meteorológicos de más de 4000 aeropuertos (mensajes METAR y TAF).

Los puntos amarillos y rojos representan las estaciones disponibles.

Ponga el ratón en el punto deseado para ver el nombre de la estación.

Haga clic para ver las observaciones y los pronósticos meteorológicos.

Para cambiar el mapa : haga clic en los botones verdes con una cruz de color negro para hacer un zoom, en el botón verde con un guión para alejar o en las flechas verdes para mapas adyacentes.


METAR-TAF: